Time;durP1;ratioP1;P1;durP2;ratioP2;P2;SDS_P1;SDS_P2;PMS_P1;PMS_P2;Temp;Humidity;BMP_temperature;BMP_pressure;BME280_temperature;BME280_humidity;BME280_pressure;Samples;Min_cycle;Max_cycle;Signal;HPM_P1;HPM_P2
2022/11/09 00:01:15;;;;;;;;;;;13.10;99.90;;;;;;5065794;28;19964;-75
2022/11/09 00:03:41;;;;;;;;;;;13.20;99.90;;;;;;5073306;28;19955;-75
2022/11/09 00:06:06;;;;;;;;;;;13.20;99.90;;;;;;5075404;28;19913;-75
2022/11/09 00:08:32;;;;;;;;;;;13.30;99.90;;;;;;5068132;28;20285;-75
2022/11/09 00:11:01;;;;;;;;;;;13.20;99.90;;;;;;5066288;28;19921;-75
2022/11/09 00:13:26;;;;;;;;;;;13.30;99.90;;;;;;5074412;28;19920;-75
2022/11/09 00:15:52;;;;;;;;;;;13.20;99.90;;;;;;5075670;28;19912;-78
2022/11/09 00:18:17;;;;;;;;;;;13.20;99.90;;;;;;5076090;28;19913;-73
2022/11/09 00:20:43;;;;;;;;;;;13.30;99.90;;;;;;5072627;28;19913;-76
2022/11/09 00:23:08;;;;;;;;;;;13.30;99.90;;;;;;5075907;28;20219;-76
2022/11/09 00:25:34;;;;;;;;;;;13.30;99.90;;;;;;5074882;28;19963;-75
2022/11/09 00:27:59;;;;;;;;;;;13.30;99.90;;;;;;5075173;28;20007;-76
2022/11/09 00:30:26;;;;;;;;;;;13.30;99.90;;;;;;5058342;28;19920;-76
2022/11/09 00:32:52;;;;;;;;;;;13.20;99.90;;;;;;5072431;28;19920;-80
2022/11/09 00:35:17;;;;;;;;;;;13.30;99.90;;;;;;5074042;28;20258;-74
2022/11/09 00:37:43;;;;;;;;;;;13.20;99.90;;;;;;5072992;28;20007;-75
2022/11/09 00:40:09;;;;;;;;;;;13.10;99.90;;;;;;5076726;28;20253;-76
2022/11/09 00:42:34;;;;;;;;;;;13.10;99.90;;;;;;5072543;28;19929;-75
2022/11/09 00:45:00;;;;;;;;;;;13.10;99.90;;;;;;5075008;28;19965;-75
2022/11/09 00:47:25;;;;;;;;;;;13.10;99.90;;;;;;5071792;28;20220;-74
2022/11/09 00:49:51;;;;;;;;;;;13.10;99.90;;;;;;5073648;28;19919;-75
2022/11/09 00:52:16;;;;;;;;;;;13.10;99.90;;;;;;5071928;28;19913;-75
2022/11/09 00:54:42;;;;;;;;;;;13.00;99.90;;;;;;5054029;28;19981;-75
2022/11/09 00:57:07;;;;;;;;;;;13.00;99.90;;;;;;5073088;28;19920;-76
2022/11/09 00:59:33;;;;;;;;;;;13.00;99.90;;;;;;5069389;28;19912;-75
2022/11/09 01:01:58;;;;;;;;;;;12.90;99.90;;;;;;5073157;28;19916;-75
2022/11/09 01:04:24;;;;;;;;;;;12.90;99.90;;;;;;5069424;28;19935;-75
2022/11/09 01:06:49;;;;;;;;;;;12.90;99.90;;;;;;5067841;28;20226;-75
2022/11/09 01:09:15;;;;;;;;;;;12.80;99.90;;;;;;5057391;28;19923;-77
2022/11/09 01:11:40;;;;;;;;;;;12.80;99.90;;;;;;5047536;28;19920;-76
2022/11/09 01:14:06;;;;;;;;;;;12.70;99.90;;;;;;5053939;28;19931;-76
2022/11/09 01:16:31;;;;;;;;;;;12.70;99.90;;;;;;5074398;28;19958;-76
2022/11/09 01:18:58;;;;;;;;;;;12.70;99.90;;;;;;5073370;28;19916;-76
2022/11/09 01:21:24;;;;;;;;;;;12.60;99.90;;;;;;5073305;28;19912;-78
2022/11/09 01:23:50;;;;;;;;;;;12.60;99.90;;;;;;5073094;28;20012;-76
2022/11/09 01:26:15;;;;;;;;;;;12.60;99.90;;;;;;5073651;28;20003;-75
2022/11/09 01:28:41;;;;;;;;;;;12.60;99.90;;;;;;5056390;28;19916;-76
2022/11/09 01:31:09;;;;;;;;;;;12.60;99.90;;;;;;5073175;28;20222;-76
2022/11/09 01:33:35;;;;;;;;;;;12.50;99.90;;;;;;5073387;28;19952;-75
2022/11/09 01:36:01;;;;;;;;;;;12.50;99.90;;;;;;5072960;28;19947;-78
2022/11/09 01:38:27;;;;;;;;;;;12.50;99.90;;;;;;5065281;28;19939;-76
2022/11/09 01:40:52;;;;;;;;;;;12.40;99.90;;;;;;5074144;28;20307;-75
2022/11/09 01:43:20;;;;;;;;;;;12.40;99.90;;;;;;5072704;28;19970;-75
2022/11/09 01:45:47;;;;;;;;;;;12.40;99.90;;;;;;5074050;28;19923;-75
2022/11/09 01:48:23;;;;;;;;;;;12.30;99.90;;;;;;5073587;28;20219;-76
2022/11/09 01:50:57;;;;;;;;;;;12.30;99.90;;;;;;5070730;28;19927;-75
2022/11/09 01:53:25;;;;;;;;;;;12.30;99.90;;;;;;5070757;28;19951;-75
2022/11/09 01:55:51;;;;;;;;;;;12.30;99.90;;;;;;5070018;28;19963;-75
2022/11/09 01:58:20;;;;;;;;;;;12.30;99.90;;;;;;5054173;28;19962;-76
2022/11/09 02:00:47;;;;;;;;;;;12.20;99.90;;;;;;5054730;28;19916;-76
2022/11/09 02:03:17;;;;;;;;;;;12.20;99.90;;;;;;5054171;28;20303;-76
2022/11/09 02:05:43;;;;;;;;;;;12.20;99.90;;;;;;5067426;28;20025;-76
2022/11/09 02:08:09;;;;;;;;;;;12.10;99.90;;;;;;5072442;28;19942;-75
2022/11/09 02:10:42;;;;;;;;;;;12.10;99.90;;;;;;5056063;28;20213;-75
2022/11/09 02:13:09;;;;;;;;;;;12.10;99.90;;;;;;5054792;28;19977;-75
2022/11/09 02:15:35;;;;;;;;;;;12.10;99.90;;;;;;5073860;28;19913;-75
2022/11/09 02:18:01;;;;;;;;;;;12.10;99.90;;;;;;5035904;28;19924;-76
2022/11/09 02:20:27;;;;;;;;;;;12.10;99.90;;;;;;5071372;28;19912;-75
2022/11/09 02:22:53;;;;;;;;;;;12.10;99.90;;;;;;5056045;28;19924;-75
2022/11/09 02:25:18;;;;;;;;;;;12.10;99.90;;;;;;5071427;28;19955;-75
2022/11/09 02:27:44;;;;;;;;;;;12.20;99.90;;;;;;5072578;28;20013;-75
2022/11/09 02:30:11;;;;;;;;;;;12.20;99.90;;;;;;5071082;28;19958;-75
2022/11/09 02:32:36;;;;;;;;;;;12.30;99.90;;;;;;5071029;28;19927;-75
2022/11/09 02:35:02;;;;;;;;;;;12.30;99.90;;;;;;5069683;28;19913;-75
2022/11/09 02:37:28;;;;;;;;;;;12.40;99.90;;;;;;5070114;28;19916;-75
2022/11/09 02:39:54;;;;;;;;;;;12.40;99.90;;;;;;5062496;28;19921;-75
2022/11/09 02:42:20;;;;;;;;;;;12.40;99.90;;;;;;5061847;28;19931;-75
2022/11/09 02:44:51;;;;;;;;;;;12.40;99.90;;;;;;5063208;28;19916;-76
2022/11/09 02:47:17;;;;;;;;;;;12.40;99.90;;;;;;5064406;28;19925;-76
2022/11/09 02:49:42;;;;;;;;;;;12.40;99.90;;;;;;5053738;28;19915;-75
2022/11/09 02:52:07;;;;;;;;;;;12.40;99.90;;;;;;5051588;28;19925;-76
2022/11/09 02:54:33;;;;;;;;;;;12.40;99.90;;;;;;5061663;28;19909;-76
2022/11/09 02:56:59;;;;;;;;;;;12.40;99.90;;;;;;5061851;28;19986;-76
2022/11/09 02:59:24;;;;;;;;;;;12.40;99.90;;;;;;5054070;28;19924;-77
2022/11/09 03:01:50;;;;;;;;;;;12.40;99.90;;;;;;5054337;28;19921;-75
2022/11/09 03:04:15;;;;;;;;;;;12.40;99.90;;;;;;5055919;28;19917;-76
2022/11/09 03:06:41;;;;;;;;;;;12.40;99.90;;;;;;5039088;28;19920;-76
2022/11/09 03:09:10;;;;;;;;;;;12.40;99.90;;;;;;5056990;28;19913;-76
2022/11/09 03:11:37;;;;;;;;;;;12.40;99.90;;;;;;5057501;28;19951;-76
2022/11/09 03:14:03;;;;;;;;;;;12.30;99.90;;;;;;5019883;28;20312;-76
2022/11/09 03:16:28;;;;;;;;;;;12.30;99.90;;;;;;5054528;28;19923;-77
2022/11/09 03:18:54;;;;;;;;;;;12.40;99.90;;;;;;5039312;28;20246;-76
2022/11/09 03:21:21;;;;;;;;;;;12.30;99.90;;;;;;5056520;28;20574;-76
2022/11/09 03:23:47;;;;;;;;;;;12.20;99.90;;;;;;5054866;28;20312;-76
2022/11/09 03:26:13;;;;;;;;;;;12.20;99.90;;;;;;5055742;28;19920;-76
2022/11/09 03:28:38;;;;;;;;;;;12.20;99.90;;;;;;5053168;28;19912;-76
2022/11/09 03:31:04;;;;;;;;;;;12.10;99.90;;;;;;5053075;28;19913;-76
2022/11/09 03:33:29;;;;;;;;;;;12.10;99.90;;;;;;5049344;28;19960;-76
2022/11/09 03:35:55;;;;;;;;;;;12.10;99.90;;;;;;5054693;28;20221;-75
2022/11/09 03:38:20;;;;;;;;;;;12.10;99.90;;;;;;5047931;28;19917;-76
2022/11/09 03:40:46;;;;;;;;;;;12.10;99.90;;;;;;5073971;28;20040;-78
2022/11/09 03:43:12;;;;;;;;;;;12.00;99.90;;;;;;5071560;28;19966;-77
2022/11/09 03:45:37;;;;;;;;;;;12.00;99.90;;;;;;5073736;28;19916;-76
2022/11/09 03:48:03;;;;;;;;;;;12.00;99.90;;;;;;5075070;28;19916;-77
2022/11/09 03:50:30;;;;;;;;;;;11.90;99.90;;;;;;5074502;28;19916;-76
2022/11/09 03:52:56;;;;;;;;;;;12.00;99.90;;;;;;5075512;28;20148;-76
2022/11/09 03:55:22;;;;;;;;;;;11.90;99.90;;;;;;5073769;28;19927;-76
2022/11/09 03:57:48;;;;;;;;;;;11.90;99.90;;;;;;5075851;28;19912;-76
2022/11/09 04:00:14;;;;;;;;;;;11.90;99.90;;;;;;5072099;28;19919;-76
2022/11/09 04:02:40;;;;;;;;;;;11.90;99.90;;;;;;5073438;28;20227;-75
2022/11/09 04:05:06;;;;;;;;;;;11.90;99.90;;;;;;5075461;28;19920;-77
2022/11/09 04:07:31;;;;;;;;;;;11.80;99.90;;;;;;5072751;28;19963;-75
2022/11/09 04:09:57;;;;;;;;;;;11.80;99.90;;;;;;5076714;28;19913;-75
2022/11/09 04:12:22;;;;;;;;;;;11.80;99.90;;;;;;5071784;28;20269;-75
2022/11/09 04:14:48;;;;;;;;;;;11.80;99.90;;;;;;5073571;28;19936;-77
2022/11/09 04:17:13;;;;;;;;;;;11.80;99.90;;;;;;5070156;28;19912;-77
2022/11/09 04:19:39;;;;;;;;;;;11.70;99.90;;;;;;5074269;28;20243;-75
2022/11/09 04:22:04;;;;;;;;;;;11.70;99.90;;;;;;5073138;28;20311;-76
2022/11/09 04:24:30;;;;;;;;;;;11.80;99.90;;;;;;5072881;28;20304;-75
2022/11/09 04:26:55;;;;;;;;;;;11.80;99.90;;;;;;5074694;28;19927;-76
2022/11/09 04:29:21;;;;;;;;;;;11.80;99.90;;;;;;5075323;28;19913;-77
2022/11/09 04:31:47;;;;;;;;;;;11.80;99.90;;;;;;5107726;28;19912;-76
2022/11/09 04:34:13;;;;;;;;;;;11.90;99.90;;;;;;5071735;28;19919;-76
2022/11/09 04:36:38;;;;;;;;;;;11.80;99.90;;;;;;5069268;28;19913;-76
2022/11/09 04:39:04;;;;;;;;;;;11.80;99.90;;;;;;5069495;28;19925;-76
2022/11/09 04:41:29;;;;;;;;;;;11.90;99.90;;;;;;5069539;28;19962;-76
2022/11/09 04:43:54;;;;;;;;;;;11.90;99.90;;;;;;5056441;28;19971;-76
2022/11/09 04:46:20;;;;;;;;;;;11.90;99.90;;;;;;5073815;28;20299;-75
2022/11/09 04:48:46;;;;;;;;;;;11.90;99.90;;;;;;5073554;28;19959;-75
2022/11/09 04:51:11;;;;;;;;;;;11.90;99.90;;;;;;5072172;28;19943;-75
2022/11/09 04:53:37;;;;;;;;;;;11.90;99.90;;;;;;5073792;28;19924;-76
2022/11/09 04:56:04;;;;;;;;;;;11.90;99.90;;;;;;5071881;28;19958;-76
2022/11/09 04:58:29;;;;;;;;;;;11.80;99.90;;;;;;5073407;28;19912;-75
2022/11/09 05:01:00;;;;;;;;;;;11.90;99.90;;;;;;5070387;28;19982;-76
2022/11/09 05:03:25;;;;;;;;;;;11.90;99.90;;;;;;5064835;28;19916;-75
2022/11/09 05:05:51;;;;;;;;;;;11.90;99.90;;;;;;5074977;28;19995;-75
2022/11/09 05:08:16;;;;;;;;;;;11.90;99.90;;;;;;5072083;28;19965;-75
2022/11/09 05:10:42;;;;;;;;;;;11.80;99.90;;;;;;5071566;28;19916;-76
2022/11/09 05:13:09;;;;;;;;;;;11.80;99.90;;;;;;5074191;28;19956;-78
2022/11/09 05:15:35;;;;;;;;;;;11.70;99.90;;;;;;5070703;28;19940;-75
2022/11/09 05:18:01;;;;;;;;;;;11.60;99.90;;;;;;5070496;28;19908;-76
2022/11/09 05:20:27;;;;;;;;;;;11.60;99.90;;;;;;5075294;28;19909;-76
2022/11/09 05:25:37;;;;;;;;;;;11.60;99.90;;;;;;5070698;28;19923;-75
2022/11/09 05:28:02;;;;;;;;;;;11.50;99.90;;;;;;5074901;28;19913;-75
2022/11/09 05:30:28;;;;;;;;;;;11.50;99.90;;;;;;5073063;28;20325;-75
2022/11/09 05:32:53;;;;;;;;;;;11.50;99.90;;;;;;5065687;28;19969;-76
2022/11/09 05:35:19;;;;;;;;;;;11.50;99.90;;;;;;5073103;28;20078;-76
2022/11/09 05:37:48;;;;;;;;;;;11.50;99.90;;;;;;5071324;28;19954;-77
2022/11/09 05:40:14;;;;;;;;;;;11.50;99.90;;;;;;5072947;28;20015;-76
2022/11/09 05:42:40;;;;;;;;;;;11.50;99.90;;;;;;5065385;28;20219;-76
2022/11/09 05:45:07;;;;;;;;;;;11.50;99.90;;;;;;5072169;28;19973;-76
2022/11/09 05:47:35;;;;;;;;;;;11.50;99.90;;;;;;5070093;28;20053;-77
2022/11/09 05:50:01;;;;;;;;;;;11.50;99.90;;;;;;5073372;28;20215;-75
2022/11/09 05:52:26;;;;;;;;;;;11.50;99.90;;;;;;5072802;28;19916;-75
2022/11/09 05:54:52;;;;;;;;;;;11.50;99.90;;;;;;5072442;28;19913;-75
2022/11/09 05:57:17;;;;;;;;;;;11.60;99.90;;;;;;5070662;28;19913;-76
2022/11/09 05:59:43;;;;;;;;;;;11.50;99.90;;;;;;5071313;28;19935;-75
2022/11/09 06:02:08;;;;;;;;;;;11.50;99.90;;;;;;5073728;28;19978;-76
2022/11/09 06:04:34;;;;;;;;;;;11.50;99.90;;;;;;5072672;28;19999;-76
2022/11/09 06:06:59;;;;;;;;;;;11.40;99.90;;;;;;5072774;28;19922;-76
2022/11/09 06:09:25;;;;;;;;;;;11.40;99.90;;;;;;5073628;28;19909;-75
2022/11/09 06:11:50;;;;;;;;;;;11.40;99.90;;;;;;5071999;28;20206;-76
2022/11/09 06:14:16;;;;;;;;;;;11.50;99.90;;;;;;5062622;28;19924;-76
2022/11/09 06:16:41;;;;;;;;;;;11.50;99.90;;;;;;5067308;28;19912;-75
2022/11/09 06:19:07;;;;;;;;;;;11.40;99.90;;;;;;5068099;28;19925;-75
2022/11/09 06:21:32;;;;;;;;;;;11.40;99.90;;;;;;5064551;28;20300;-76
2022/11/09 06:23:58;;;;;;;;;;;11.40;99.90;;;;;;5068513;28;19916;-76
2022/11/09 06:26:23;;;;;;;;;;;11.40;99.90;;;;;;5065164;28;19985;-76
2022/11/09 06:28:49;;;;;;;;;;;11.40;99.90;;;;;;5072333;28;19920;-77
2022/11/09 06:31:15;;;;;;;;;;;11.40;99.90;;;;;;5055872;28;19931;-75
2022/11/09 06:33:40;;;;;;;;;;;11.40;99.90;;;;;;5076131;28;19920;-76
2022/11/09 06:36:06;;;;;;;;;;;11.40;99.90;;;;;;5075218;28;19931;-75
2022/11/09 06:38:32;;;;;;;;;;;11.40;99.90;;;;;;5075417;28;19919;-76
2022/11/09 06:40:58;;;;;;;;;;;11.40;99.90;;;;;;5077167;28;19909;-76
2022/11/09 06:43:24;;;;;;;;;;;11.40;99.90;;;;;;5073935;28;19924;-76
2022/11/09 06:45:50;;;;;;;;;;;11.40;99.90;;;;;;5077835;28;19974;-75
2022/11/09 06:48:15;;;;;;;;;;;11.40;99.90;;;;;;5076495;28;20307;-77
2022/11/09 06:50:41;;;;;;;;;;;11.30;99.90;;;;;;5077140;28;19916;-76
2022/11/09 06:53:08;;;;;;;;;;;11.40;99.90;;;;;;5076873;28;19960;-75
2022/11/09 06:55:34;;;;;;;;;;;11.30;99.90;;;;;;5075921;28;19912;-76
2022/11/09 06:58:03;;;;;;;;;;;11.40;99.90;;;;;;5077077;28;20208;-76
2022/11/09 07:00:29;;;;;;;;;;;11.40;99.90;;;;;;5075496;28;19920;-75
2022/11/09 07:02:55;;;;;;;;;;;11.40;99.90;;;;;;5075178;28;20210;-77
2022/11/09 07:05:20;;;;;;;;;;;11.40;99.90;;;;;;5075425;28;19963;-77
2022/11/09 07:07:46;;;;;;;;;;;11.40;99.90;;;;;;5074275;28;19912;-76
2022/11/09 07:10:11;;;;;;;;;;;11.50;99.90;;;;;;5077728;28;19916;-79
2022/11/09 07:12:37;;;;;;;;;;;11.50;99.90;;;;;;5076475;28;19923;-75
2022/11/09 07:15:03;;;;;;;;;;;11.50;99.90;;;;;;5074273;28;19962;-73
2022/11/09 07:17:32;;;;;;;;;;;11.50;99.90;;;;;;5076064;28;20296;-74
2022/11/09 07:19:57;;;;;;;;;;;11.50;99.90;;;;;;5072023;28;19939;-75
2022/11/09 07:22:23;;;;;;;;;;;11.50;99.90;;;;;;5066832;28;19925;-75
2022/11/09 07:24:48;;;;;;;;;;;11.50;99.90;;;;;;5075689;28;19920;-75
2022/11/09 07:27:14;;;;;;;;;;;11.50;99.90;;;;;;5077277;28;19962;-75
2022/11/09 07:29:39;;;;;;;;;;;11.60;99.90;;;;;;5074464;28;19912;-75
2022/11/09 07:32:05;;;;;;;;;;;11.60;99.90;;;;;;5075244;28;19912;-75
2022/11/09 07:34:30;;;;;;;;;;;11.60;99.90;;;;;;5076381;28;20012;-75
2022/11/09 07:36:56;;;;;;;;;;;11.70;99.90;;;;;;5074070;28;19920;-75
2022/11/09 07:39:22;;;;;;;;;;;11.70;99.90;;;;;;5074837;28;19916;-75
2022/11/09 07:41:47;;;;;;;;;;;11.70;99.90;;;;;;5075163;28;19935;-76
2022/11/09 07:44:17;;;;;;;;;;;11.70;99.90;;;;;;5076892;28;19908;-75
2022/11/09 07:46:46;;;;;;;;;;;11.80;99.90;;;;;;5075574;28;19920;-75
2022/11/09 07:49:12;;;;;;;;;;;11.80;99.90;;;;;;5074135;28;19927;-77
2022/11/09 07:51:38;;;;;;;;;;;11.90;99.90;;;;;;5075957;28;19924;-75
2022/11/09 07:54:04;;;;;;;;;;;11.90;99.90;;;;;;5074975;28;19912;-75
2022/11/09 07:56:29;;;;;;;;;;;11.90;99.90;;;;;;5075651;28;19939;-75
2022/11/09 07:58:55;;;;;;;;;;;12.00;99.90;;;;;;5073570;28;19947;-75
2022/11/09 08:01:20;;;;;;;;;;;12.10;99.90;;;;;;5075824;28;19912;-76
2022/11/09 08:03:46;;;;;;;;;;;12.10;99.90;;;;;;5075173;28;19931;-75
2022/11/09 08:06:11;;;;;;;;;;;12.20;99.90;;;;;;5075723;28;19908;-76
2022/11/09 08:08:37;;;;;;;;;;;12.20;99.90;;;;;;5069499;28;19970;-75
2022/11/09 08:11:03;;;;;;;;;;;12.20;99.90;;;;;;5068704;28;19912;-77
2022/11/09 08:13:29;;;;;;;;;;;12.30;99.90;;;;;;5075399;28;19987;-75
2022/11/09 08:15:54;;;;;;;;;;;12.20;99.90;;;;;;5074683;28;19923;-81
2022/11/09 08:18:20;;;;;;;;;;;12.20;99.90;;;;;;5074398;28;19912;-77
2022/11/09 08:20:47;;;;;;;;;;;12.20;99.90;;;;;;5070986;28;19917;-75
2022/11/09 08:23:13;;;;;;;;;;;12.30;99.90;;;;;;5086587;28;19970;-77
2022/11/09 08:25:39;;;;;;;;;;;12.30;99.90;;;;;;5070602;28;20039;-76
2022/11/09 08:28:04;;;;;;;;;;;12.30;99.90;;;;;;5072712;28;20364;-75
2022/11/09 08:30:31;;;;;;;;;;;12.20;99.90;;;;;;5073765;28;20016;-76
2022/11/09 08:32:57;;;;;;;;;;;12.30;99.90;;;;;;5072637;28;19917;-76
2022/11/09 08:35:23;;;;;;;;;;;12.30;99.90;;;;;;5071580;28;19916;-77
2022/11/09 08:37:49;;;;;;;;;;;12.30;99.90;;;;;;5069850;28;19921;-75
2022/11/09 08:40:16;;;;;;;;;;;12.20;99.90;;;;;;5067385;28;20046;-76
2022/11/09 08:42:41;;;;;;;;;;;12.30;99.90;;;;;;5074179;28;19974;-75
2022/11/09 08:45:07;;;;;;;;;;;12.30;99.90;;;;;;5073453;28;19913;-77
2022/11/09 08:47:33;;;;;;;;;;;12.30;99.90;;;;;;5074650;28;19908;-77
2022/11/09 08:49:59;;;;;;;;;;;12.40;99.90;;;;;;5073043;28;20311;-75
2022/11/09 08:52:24;;;;;;;;;;;12.50;99.90;;;;;;5071403;28;19928;-74
2022/11/09 08:54:50;;;;;;;;;;;12.50;99.90;;;;;;5073418;28;19990;-77
2022/11/09 08:57:18;;;;;;;;;;;12.60;99.90;;;;;;5072399;28;19929;-76
2022/11/09 08:59:44;;;;;;;;;;;12.60;99.90;;;;;;5074219;28;20216;-76
2022/11/09 09:02:11;;;;;;;;;;;12.70;99.90;;;;;;5074033;28;19924;-75
2022/11/09 09:04:36;;;;;;;;;;;12.60;99.90;;;;;;5071318;28;20307;-75
2022/11/09 09:07:02;;;;;;;;;;;12.70;99.90;;;;;;5070587;28;19912;-74
2022/11/09 09:09:28;;;;;;;;;;;12.80;99.90;;;;;;5069669;28;20315;-76
2022/11/09 09:11:53;;;;;;;;;;;12.70;99.90;;;;;;5068762;28;20276;-75
2022/11/09 09:14:19;;;;;;;;;;;12.70;99.90;;;;;;5069030;28;20279;-75
2022/11/09 09:16:44;;;;;;;;;;;12.70;99.90;;;;;;5072868;28;19923;-78
2022/11/09 09:19:10;;;;;;;;;;;12.70;99.90;;;;;;5069482;28;20219;-75
2022/11/09 09:21:35;;;;;;;;;;;12.70;99.90;;;;;;5073912;28;19916;-74
2022/11/09 09:24:01;;;;;;;;;;;12.70;99.90;;;;;;5074493;28;19955;-75
2022/11/09 09:26:26;;;;;;;;;;;12.70;99.90;;;;;;5074240;28;20022;-74
2022/11/09 09:28:52;;;;;;;;;;;12.70;99.90;;;;;;5067911;28;19908;-75
2022/11/09 09:31:17;;;;;;;;;;;12.70;99.90;;;;;;5072882;28;19919;-74
2022/11/09 09:33:43;;;;;;;;;;;12.70;99.90;;;;;;5072211;28;20207;-74
2022/11/09 09:36:14;;;;;;;;;;;12.80;99.90;;;;;;5072656;28;20294;-75
2022/11/09 09:41:06;;;;;;;;;;;12.90;99.90;;;;;;5098467;27;19912;-73
2022/11/09 09:43:32;;;;;;;;;;;12.90;99.90;;;;;;5102501;28;19918;-74
2022/11/09 09:45:58;;;;;;;;;;;12.90;99.90;;;;;;5090965;28;19973;-73
2022/11/09 09:48:27;;;;;;;;;;;13.00;99.90;;;;;;5092881;28;20303;-74
2022/11/09 09:50:53;;;;;;;;;;;13.10;99.90;;;;;;5093848;28;20295;-73
2022/11/09 09:53:25;;;;;;;;;;;13.20;99.90;;;;;;5093575;28;20323;-74
2022/11/09 09:56:11;;;;;;;;;;;13.20;99.90;;;;;;5094524;28;20223;-74
2022/11/09 09:58:40;;;;;;;;;;;13.30;99.90;;;;;;5093862;28;19916;-74
2022/11/09 10:01:11;;;;;;;;;;;13.30;99.90;;;;;;5089371;28;19956;-73
2022/11/09 10:03:37;;;;;;;;;;;13.20;99.90;;;;;;5094479;28;19927;-76
2022/11/09 10:06:08;;;;;;;;;;;13.10;99.90;;;;;;5095924;28;19908;-73
2022/11/09 10:08:34;;;;;;;;;;;13.20;99.90;;;;;;5098861;28;20011;-74
2022/11/09 10:10:59;;;;;;;;;;;13.20;99.90;;;;;;5102676;28;20007;-73
2022/11/09 10:13:25;;;;;;;;;;;13.30;99.90;;;;;;5100675;28;19916;-73
2022/11/09 10:16:09;;;;;;;;;;;13.30;99.90;;;;;;5103058;28;20196;-73
2022/11/09 10:18:37;;;;;;;;;;;13.30;99.90;;;;;;5103826;28;19912;-73
2022/11/09 10:21:05;;;;;;;;;;;13.40;99.90;;;;;;5106272;28;19962;-73
2022/11/09 10:23:52;;;;;;;;;;;13.30;99.90;;;;;;5100004;28;19919;-73
2022/11/09 10:26:31;;;;;;;;;;;13.30;99.90;;;;;;5103277;28;19916;-73
2022/11/09 10:28:59;;;;;;;;;;;13.20;99.90;;;;;;5093448;28;19966;-73
2022/11/09 10:31:28;;;;;;;;;;;13.20;99.90;;;;;;5101645;28;19923;-73
2022/11/09 10:33:56;;;;;;;;;;;13.30;99.90;;;;;;5098108;28;19912;-74
2022/11/09 10:36:43;;;;;;;;;;;13.20;99.90;;;;;;5084756;28;20301;-74
2022/11/09 10:39:11;;;;;;;;;;;13.20;99.90;;;;;;5105258;28;19963;-74
2022/11/09 10:41:38;;;;;;;;;;;13.30;99.90;;;;;;5123751;28;19930;-73
2022/11/09 10:44:04;;;;;;;;;;;13.30;99.90;;;;;;5107668;28;19999;-76
2022/11/09 10:46:29;;;;;;;;;;;13.30;99.90;;;;;;5081821;28;20344;-74
2022/11/09 10:48:55;;;;;;;;;;;13.40;99.90;;;;;;5093667;28;19916;-74
2022/11/09 10:51:30;;;;;;;;;;;13.40;99.90;;;;;;5123941;28;19908;-74
2022/11/09 10:54:17;;;;;;;;;;;13.40;99.90;;;;;;5089932;28;19942;-74
2022/11/09 10:56:44;;;;;;;;;;;13.30;99.90;;;;;;5109863;28;19958;-74
2022/11/09 10:59:28;;;;;;;;;;;13.30;99.90;;;;;;5105148;28;20406;-76
2022/11/09 11:01:53;;;;;;;;;;;13.20;99.90;;;;;;5110169;28;19920;-74
2022/11/09 11:04:21;;;;;;;;;;;13.20;99.90;;;;;;5106599;28;19912;-74
2022/11/09 11:06:46;;;;;;;;;;;13.20;99.90;;;;;;5104304;28;19913;-75
2022/11/09 11:09:14;;;;;;;;;;;13.10;99.90;;;;;;5087238;28;19922;-74
2022/11/09 11:11:39;;;;;;;;;;;13.10;99.90;;;;;;5088161;28;19912;-75
2022/11/09 11:14:11;;;;;;;;;;;13.10;99.90;;;;;;5089114;28;19908;-74
2022/11/09 11:16:37;;;;;;;;;;;13.10;99.90;;;;;;5096733;28;19908;-74
2022/11/09 11:19:03;;;;;;;;;;;13.10;99.90;;;;;;5111066;28;19916;-74
2022/11/09 11:21:29;;;;;;;;;;;13.00;99.90;;;;;;5107957;28;20450;-75
2022/11/09 11:24:33;;;;;;;;;;;13.00;99.90;;;;;;5088072;28;20432;-73
2022/11/09 11:27:03;;;;;;;;;;;13.00;99.90;;;;;;5041700;28;19918;-74
2022/11/09 11:29:48;;;;;;;;;;;13.10;99.90;;;;;;5040957;28;19924;-73
2022/11/09 11:32:14;;;;;;;;;;;13.30;99.90;;;;;;5071362;28;19918;-73
2022/11/09 11:34:40;;;;;;;;;;;13.30;99.90;;;;;;5113248;28;19911;-74
2022/11/09 11:37:24;;;;;;;;;;;13.30;99.90;;;;;;5099947;28;19911;-74
2022/11/09 11:40:16;;;;;;;;;;;13.30;99.90;;;;;;5113491;28;20022;-76
2022/11/09 11:42:52;;;;;;;;;;;13.30;99.90;;;;;;5071590;28;20295;-73
2022/11/09 11:45:31;;;;;;;;;;;13.20;99.90;;;;;;5098010;28;19954;-73
2022/11/09 11:47:57;;;;;;;;;;;13.20;99.90;;;;;;5086761;28;19930;-73
2022/11/09 11:50:29;;;;;;;;;;;13.20;99.90;;;;;;5102925;28;20308;-73
2022/11/09 11:53:07;;;;;;;;;;;13.20;99.90;;;;;;5071090;28;19924;-75
2022/11/09 11:55:38;;;;;;;;;;;13.20;99.90;;;;;;5091511;28;19912;-75
2022/11/09 11:58:21;;;;;;;;;;;13.10;99.90;;;;;;5103676;28;20359;-73
2022/11/09 12:01:06;;;;;;;;;;;13.10;99.90;;;;;;5094157;28;19920;-74
2022/11/09 12:03:58;;;;;;;;;;;13.10;99.90;;;;;;5064497;28;19962;-74
2022/11/09 12:06:34;;;;;;;;;;;13.10;99.90;;;;;;5086562;28;19911;-77
2022/11/09 12:09:04;;;;;;;;;;;13.20;99.90;;;;;;5107102;28;20007;-74
2022/11/09 12:11:47;;;;;;;;;;;13.40;99.90;;;;;;5106621;28;19912;-74
2022/11/09 12:14:13;;;;;;;;;;;13.70;99.90;;;;;;5089319;28;19912;-74
2022/11/09 12:16:52;;;;;;;;;;;13.80;99.90;;;;;;5095306;28;19914;-74
2022/11/09 12:19:17;;;;;;;;;;;13.80;99.90;;;;;;5115227;28;19935;-74
2022/11/09 12:21:50;;;;;;;;;;;13.80;99.90;;;;;;5091241;28;20303;-74
2022/11/09 12:24:38;;;;;;;;;;;13.70;99.90;;;;;;5095955;28;20219;-74
2022/11/09 12:27:07;;;;;;;;;;;13.60;99.90;;;;;;5096023;28;19912;-73
2022/11/09 12:29:43;;;;;;;;;;;13.50;99.90;;;;;;5096801;28;19908;-74
2022/11/09 12:32:19;;;;;;;;;;;13.60;99.90;;;;;;5096946;28;19912;-75
2022/11/09 12:34:45;;;;;;;;;;;13.70;99.90;;;;;;5096476;28;20271;-75
2022/11/09 12:37:10;;;;;;;;;;;13.70;99.90;;;;;;5096414;28;19965;-74
2022/11/09 12:39:40;;;;;;;;;;;13.70;99.90;;;;;;5096905;28;19920;-73
2022/11/09 12:42:12;;;;;;;;;;;13.60;99.90;;;;;;5101020;28;20002;-74
2022/11/09 12:44:50;;;;;;;;;;;13.50;99.90;;;;;;5083563;28;20092;-73
2022/11/09 12:47:18;;;;;;;;;;;13.40;99.90;;;;;;5091073;28;19920;-74
2022/11/09 12:49:45;;;;;;;;;;;13.30;99.90;;;;;;5090686;28;19912;-74
2022/11/09 12:52:12;;;;;;;;;;;13.20;99.90;;;;;;5066461;28;19966;-75
2022/11/09 12:54:39;;;;;;;;;;;13.20;99.90;;;;;;5067594;28;20334;-73
2022/11/09 12:57:07;;;;;;;;;;;13.20;99.90;;;;;;5083607;28;19922;-73
2022/11/09 12:59:34;;;;;;;;;;;13.10;99.90;;;;;;5086185;28;20010;-74
2022/11/09 13:02:01;;;;;;;;;;;13.20;99.90;;;;;;5090381;28;20300;-73
2022/11/09 13:04:26;;;;;;;;;;;13.10;99.90;;;;;;5105699;28;19920;-75
2022/11/09 13:07:10;;;;;;;;;;;13.20;99.90;;;;;;5110175;28;19964;-74
2022/11/09 13:09:36;;;;;;;;;;;13.20;99.90;;;;;;5096569;28;20285;-74
2022/11/09 13:12:22;;;;;;;;;;;13.20;99.90;;;;;;5062234;28;19909;-75
2022/11/09 13:14:47;;;;;;;;;;;13.20;99.90;;;;;;5081275;28;19911;-73
2022/11/09 13:17:23;;;;;;;;;;;13.30;99.90;;;;;;5109640;28;20003;-73
2022/11/09 13:19:49;;;;;;;;;;;13.40;99.90;;;;;;5101806;28;19924;-74
2022/11/09 13:22:14;;;;;;;;;;;13.50;99.90;;;;;;5105082;28;19922;-74
2022/11/09 13:24:49;;;;;;;;;;;13.60;99.90;;;;;;5104881;28;19986;-74
2022/11/09 13:27:33;;;;;;;;;;;13.60;99.90;;;;;;5091310;28;19912;-74
2022/11/09 13:30:00;;;;;;;;;;;13.60;99.90;;;;;;5104029;28;19920;-73
2022/11/09 13:32:31;;;;;;;;;;;13.50;99.90;;;;;;5089593;28;19919;-74
2022/11/09 13:34:57;;;;;;;;;;;13.50;99.90;;;;;;5093072;28;19908;-73
2022/11/09 13:37:41;;;;;;;;;;;13.50;99.90;;;;;;5093150;28;19931;-74
2022/11/09 13:40:25;;;;;;;;;;;13.40;99.90;;;;;;5092684;28;19933;-77
2022/11/09 13:42:55;;;;;;;;;;;13.30;99.90;;;;;;5067828;28;19948;-73
2022/11/09 13:45:21;;;;;;;;;;;13.30;99.90;;;;;;5075659;28;19912;-74
2022/11/09 13:47:50;;;;;;;;;;;13.20;99.90;;;;;;5071418;28;19915;-74
2022/11/09 13:50:20;;;;;;;;;;;13.00;99.90;;;;;;5099892;28;19919;-74
2022/11/09 13:52:48;;;;;;;;;;;12.90;99.90;;;;;;5092260;28;20319;-74
2022/11/09 13:55:32;;;;;;;;;;;12.90;99.90;;;;;;5092201;28;20011;-75
2022/11/09 13:58:00;;;;;;;;;;;12.80;99.90;;;;;;5094067;28;19915;-75
2022/11/09 14:00:26;;;;;;;;;;;12.70;99.90;;;;;;5096047;28;19916;-75
2022/11/09 14:02:53;;;;;;;;;;;12.70;99.90;;;;;;5073305;28;19908;-75
2022/11/09 14:05:26;;;;;;;;;;;12.60;99.90;;;;;;5074651;28;20315;-77
2022/11/09 14:07:53;;;;;;;;;;;12.60;99.90;;;;;;5088598;28;19958;-74
2022/11/09 14:10:19;;;;;;;;;;;12.70;99.90;;;;;;5099836;28;20371;-75
2022/11/09 14:13:08;;;;;;;;;;;12.80;99.90;;;;;;5075678;28;19912;-74
2022/11/09 14:16:09;;;;;;;;;;;12.80;99.90;;;;;;5069250;28;19973;-79
2022/11/09 14:18:41;;;;;;;;;;;12.90;99.90;;;;;;5028299;28;19913;-73
2022/11/09 14:21:07;;;;;;;;;;;13.00;99.90;;;;;;5088763;28;19920;-74
2022/11/09 14:23:33;;;;;;;;;;;13.10;99.90;;;;;;5090602;28;19915;-75
2022/11/09 14:26:05;;;;;;;;;;;13.10;99.90;;;;;;5101408;28;20128;-74